Time;durP1;ratioP1;P1;durP2;ratioP2;P2;SDS_P1;SDS_P2;PMS_P1;PMS_P2;Temp;Humidity;BMP_temperature;BMP_pressure;BME280_temperature;BME280_humidity;BME280_pressure;Samples;Min_cycle;Max_cycle;Signal;HPM_P1;HPM_P2
2023/10/01 00:00:26;;;;;;;5.47;4.97;;;;;;;;;;5095521;28;20505;-63
2023/10/01 00:02:52;;;;;;;8.10;5.93;;;;;;;;;;5095562;28;20127;-63
2023/10/01 00:05:17;;;;;;;8.15;5.75;;;;;;;;;;5077165;28;20067;-63
2023/10/01 00:07:43;;;;;;;6.78;5.18;;;;;;;;;;5095213;28;20040;-63
2023/10/01 00:10:10;;;;;;;7.32;5.40;;;;;;;;;;5095516;28;20032;-64
2023/10/01 00:12:49;;;;;;;6.90;4.95;;;;;;;;;;5095432;28;20462;-64
2023/10/01 00:15:16;;;;;;;8.25;5.50;;;;;;;;;;5095143;28;20040;-64
2023/10/01 00:17:44;;;;;;;6.85;5.18;;;;;;;;;;5095077;28;20393;-64
2023/10/01 00:20:17;;;;;;;7.68;4.90;;;;;;;;;;5095041;28;20066;-63
2023/10/01 00:22:43;;;;;;;5.10;4.60;;;;;;;;;;5076798;28;20036;-63
2023/10/01 00:25:09;;;;;;;4.95;4.45;;;;;;;;;;5095364;28;20394;-63
2023/10/01 00:27:35;;;;;;;7.07;4.68;;;;;;;;;;5077487;28;20496;-64
2023/10/01 00:30:00;;;;;;;8.20;5.07;;;;;;;;;;5060201;28;20044;-64
2023/10/01 00:32:29;;;;;;;9.10;5.57;;;;;;;;;;5095433;28;20032;-64
2023/10/01 00:34:58;;;;;;;5.22;4.20;;;;;;;;;;5077250;28;20432;-64
2023/10/01 00:37:23;;;;;;;6.13;4.43;;;;;;;;;;5076942;28;20091;-65
2023/10/01 00:39:54;;;;;;;4.70;4.20;;;;;;;;;;5094994;28;20056;-65
2023/10/01 00:42:21;;;;;;;6.00;4.30;;;;;;;;;;5094598;28;20044;-65
2023/10/01 00:44:47;;;;;;;6.38;4.68;;;;;;;;;;5094619;28;20039;-65
2023/10/01 00:47:13;;;;;;;7.45;4.72;;;;;;;;;;5076405;28;20062;-64
2023/10/01 00:49:46;;;;;;;6.47;5.07;;;;;;;;;;5059863;28;20070;-58
2023/10/01 00:52:12;;;;;;;6.45;4.28;;;;;;;;;;5093456;28;20415;-58
2023/10/01 00:54:37;;;;;;;5.32;4.22;;;;;;;;;;5094479;28;20115;-58
2023/10/01 00:57:03;;;;;;;6.28;4.00;;;;;;;;;;5094401;28;20421;-58
2023/10/01 00:59:32;;;;;;;5.65;4.53;;;;;;;;;;5094611;28;20032;-58
2023/10/01 01:01:58;;;;;;;6.10;4.57;;;;;;;;;;5104112;27;20043;-59
2023/10/01 01:04:23;;;;;;;5.97;4.25;;;;;;;;;;5095478;28;20119;-58
2023/10/01 01:06:50;;;;;;;6.50;4.38;;;;;;;;;;5094567;28;20097;-58
2023/10/01 01:09:16;;;;;;;4.13;3.78;;;;;;;;;;5076070;28;20020;-59
2023/10/01 01:11:46;;;;;;;7.93;5.25;;;;;;;;;;5076013;28;20478;-58
2023/10/01 01:14:11;;;;;;;7.72;5.35;;;;;;;;;;5094075;28;20044;-57
2023/10/01 01:16:36;;;;;;;8.43;5.28;;;;;;;;;;5075943;28;20032;-58
2023/10/01 01:19:03;;;;;;;6.80;5.88;;;;;;;;;;5094281;28;20036;-58
2023/10/01 01:21:29;;;;;;;11.20;6.43;;;;;;;;;;5093966;28;20085;-58
2023/10/01 01:23:54;;;;;;;7.00;6.22;;;;;;;;;;5094426;28;20464;-58
2023/10/01 01:26:22;;;;;;;8.65;7.03;;;;;;;;;;5075787;28;20040;-57
2023/10/01 01:28:48;;;;;;;6.35;5.18;;;;;;;;;;5094186;28;20158;-58
2023/10/01 01:31:14;;;;;;;7.75;5.13;;;;;;;;;;5094153;28;20082;-58
2023/10/01 01:33:44;;;;;;;6.82;5.60;;;;;;;;;;5094402;28;20040;-58
2023/10/01 01:36:19;;;;;;;8.25;5.47;;;;;;;;;;5093984;28;20051;-57
2023/10/01 01:38:52;;;;;;;7.53;5.32;;;;;;;;;;5093655;28;20036;-57
2023/10/01 01:41:19;;;;;;;5.68;5.10;;;;;;;;;;5093625;28;20120;-57
2023/10/01 01:43:46;;;;;;;6.22;4.97;;;;;;;;;;5094108;28;20051;-57
2023/10/01 01:46:12;;;;;;;5.28;4.72;;;;;;;;;;5093871;28;20485;-58
2023/10/01 01:48:41;;;;;;;5.35;4.85;;;;;;;;;;5093567;28;20028;-57
2023/10/01 01:51:06;;;;;;;5.43;4.57;;;;;;;;;;5094067;28;20043;-57
2023/10/01 01:53:36;;;;;;;6.00;4.97;;;;;;;;;;5094033;28;20085;-57
2023/10/01 01:56:08;;;;;;;5.20;4.32;;;;;;;;;;5093868;28;20524;-57
2023/10/01 01:58:35;;;;;;;5.72;4.18;;;;;;;;;;5075465;28;20043;-57
2023/10/01 02:01:01;;;;;;;5.22;4.50;;;;;;;;;;5075400;28;20131;-58
2023/10/01 02:03:27;;;;;;;7.80;5.20;;;;;;;;;;5094404;28;20115;-58
2023/10/01 02:05:52;;;;;;;9.00;6.40;;;;;;;;;;5062842;28;20465;-58
2023/10/01 02:08:24;;;;;;;8.45;6.35;;;;;;;;;;5098297;28;20116;-58
2023/10/01 02:10:51;;;;;;;9.75;6.22;;;;;;;;;;5079479;28;20040;-58
2023/10/01 02:13:16;;;;;;;8.65;6.50;;;;;;;;;;5079421;28;20040;-57
2023/10/01 02:15:43;;;;;;;8.63;6.40;;;;;;;;;;5079426;28;20040;-57
2023/10/01 02:18:09;;;;;;;8.05;6.18;;;;;;;;;;5097782;28;20439;-57
2023/10/01 02:20:35;;;;;;;5.82;5.28;;;;;;;;;;5079285;28;20036;-57
2023/10/01 02:23:04;;;;;;;7.20;5.88;;;;;;;;;;5097616;28;20040;-57
2023/10/01 02:25:38;;;;;;;6.65;5.85;;;;;;;;;;5097631;28;20028;-57
2023/10/01 02:28:13;;;;;;;9.70;6.65;;;;;;;;;;5097224;28;20493;-58
2023/10/01 02:30:41;;;;;;;11.30;6.60;;;;;;;;;;5097477;28;20385;-57
2023/10/01 02:33:19;;;;;;;9.32;6.90;;;;;;;;;;5078872;28;20052;-57
2023/10/01 02:35:48;;;;;;;8.65;6.38;;;;;;;;;;5097360;28;20047;-57
2023/10/01 02:41:02;;;;;;;7.00;5.35;;;;;;;;;;5078800;28;20032;-57
2023/10/01 02:43:33;;;;;;;8.27;5.85;;;;;;;;;;5097196;28;20389;-57
2023/10/01 02:46:04;;;;;;;6.78;5.43;;;;;;;;;;5097184;28;20033;-57
2023/10/01 02:48:30;;;;;;;6.57;5.63;;;;;;;;;;5078689;28;20123;-57
2023/10/01 02:50:55;;;;;;;6.32;5.22;;;;;;;;;;5078650;28;20454;-63
2023/10/01 02:53:22;;;;;;;5.72;4.93;;;;;;;;;;5094008;22;20066;-57
2023/10/01 02:55:48;;;;;;;8.23;5.60;;;;;;;;;;5098867;28;20032;-57
2023/10/01 02:58:18;;;;;;;9.02;5.30;;;;;;;;;;5117381;28;20034;-57
2023/10/01 03:00:44;;;;;;;10.60;5.15;;;;;;;;;;5098793;28;20370;-57
2023/10/01 03:03:15;;;;;;;8.27;5.38;;;;;;;;;;5117419;28;20047;-57
2023/10/01 03:05:43;;;;;;;8.13;5.82;;;;;;;;;;5117446;28;20584;-57
2023/10/01 03:08:15;;;;;;;9.10;5.40;;;;;;;;;;5117138;28;20036;-57
2023/10/01 03:10:40;;;;;;;8.57;5.22;;;;;;;;;;5117085;28;20078;-58
2023/10/01 03:13:15;;;;;;;7.00;5.03;;;;;;;;;;5117104;28;20024;-57
2023/10/01 03:15:41;;;;;;;11.38;6.35;;;;;;;;;;5115792;28;20039;-59
2023/10/01 03:26:07;;;;;;;5.78;4.40;;;;;;;;;;5117047;28;20379;-57
2023/10/01 03:29:13;;;;;;;5.65;4.57;;;;;;;;;;5116506;28;20036;-57
2023/10/01 03:31:19;;;;;;;7.80;5.20;;;;;;;;;;5116345;28;20036;-57
2023/10/01 03:33:45;;;;;;;12.13;6.70;;;;;;;;;;5116394;28;20393;-57
2023/10/01 03:36:11;;;;;;;12.90;7.95;;;;;;;;;;5116629;28;20530;-57
2023/10/01 03:38:42;;;;;;;14.65;7.78;;;;;;;;;;5116607;28;20119;-58
2023/10/01 03:41:20;;;;;;;18.90;9.48;;;;;;;;;;5116772;28;20054;-58
2023/10/01 03:43:47;;;;;;;17.00;8.55;;;;;;;;;;5116346;28;20035;-58
2023/10/01 03:51:28;;;;;;;20.38;10.00;;;;;;;;;;5116629;28;20040;-58
2023/10/01 03:54:03;;;;;;;22.85;10.18;;;;;;;;;;5115894;28;20081;-58
2023/10/01 03:56:30;;;;;;;20.08;10.38;;;;;;;;;;5116290;28;20047;-58
2023/10/01 03:58:56;;;;;;;19.00;10.00;;;;;;;;;;5116478;28;20446;-58
2023/10/01 04:01:26;;;;;;;18.35;9.25;;;;;;;;;;5115858;28;20047;-58
2023/10/01 04:03:51;;;;;;;13.63;7.60;;;;;;;;;;5116019;28;20077;-58
2023/10/01 04:06:20;;;;;;;11.95;6.32;;;;;;;;;;5115824;28;20078;-58
2023/10/01 04:08:47;;;;;;;8.30;5.95;;;;;;;;;;5097496;28;20084;-58
2023/10/01 04:11:15;;;;;;;8.23;5.32;;;;;;;;;;5097774;28;20416;-58
2023/10/01 04:13:41;;;;;;;13.25;6.80;;;;;;;;;;5097273;28;20046;-58
2023/10/01 04:16:14;;;;;;;11.45;7.18;;;;;;;;;;5115826;28;20050;-58
2023/10/01 04:18:42;;;;;;;12.93;7.47;;;;;;;;;;5116052;28;20043;-58
2023/10/01 04:23:33;;;;;;;13.50;7.10;;;;;;;;;;5115322;28;20089;-58
2023/10/01 04:26:04;;;;;;;13.25;7.45;;;;;;;;;;5115315;28;20063;-58
2023/10/01 04:28:35;;;;;;;11.68;6.80;;;;;;;;;;5115575;28;20035;-58
2023/10/01 04:31:03;;;;;;;12.07;7.22;;;;;;;;;;5115250;28;20568;-58
2023/10/01 04:33:29;;;;;;;12.35;7.18;;;;;;;;;;5115760;28;20505;-58
2023/10/01 04:36:01;;;;;;;15.65;7.07;;;;;;;;;;5115430;28;20054;-57
2023/10/01 04:38:29;;;;;;;8.93;5.82;;;;;;;;;;5115080;28;20047;-58
2023/10/01 04:40:54;;;;;;;15.82;7.60;;;;;;;;;;5115314;28;20070;-57
2023/10/01 04:43:20;;;;;;;15.05;7.28;;;;;;;;;;5115545;28;20071;-58
2023/10/01 04:45:47;;;;;;;21.45;9.75;;;;;;;;;;5114981;28;20051;-59
2023/10/01 04:48:17;;;;;;;23.25;10.50;;;;;;;;;;5115243;28;20043;-59
2023/10/01 04:50:46;;;;;;;26.60;10.10;;;;;;;;;;5096721;28;20038;-57
2023/10/01 04:53:13;;;;;;;22.77;10.18;;;;;;;;;;5114711;28;20047;-57
2023/10/01 04:55:42;;;;;;;23.77;11.15;;;;;;;;;;5115126;28;20113;-58
2023/10/01 04:58:14;;;;;;;20.48;10.40;;;;;;;;;;5115368;28;20173;-59
2023/10/01 05:00:45;;;;;;;21.83;10.88;;;;;;;;;;5114727;28;20035;-59
2023/10/01 05:03:14;;;;;;;;;;;;;;;;;;5096803;28;20542;-59
2023/10/01 05:05:42;;;;;;;21.10;10.38;;;;;;;;;;5115217;28;19915;-58
2023/10/01 05:08:08;;;;;;;21.90;9.82;;;;;;;;;;5096711;28;20410;-57
2023/10/01 05:10:51;;;;;;;22.60;10.90;;;;;;;;;;5114493;28;20036;-58
2023/10/01 05:13:20;;;;;;;21.50;10.32;;;;;;;;;;5096307;28;20040;-57
2023/10/01 05:15:58;;;;;;;19.45;10.18;;;;;;;;;;5114990;28;20489;-58
2023/10/01 05:18:26;;;;;;;21.17;10.40;;;;;;;;;;5114376;28;20032;-58
2023/10/01 05:21:04;;;;;;;21.10;10.00;;;;;;;;;;5114623;28;20405;-58
2023/10/01 05:23:29;;;;;;;20.02;9.40;;;;;;;;;;5114548;28;20043;-58
2023/10/01 05:25:56;;;;;;;19.02;9.98;;;;;;;;;;5114818;28;20031;-58
2023/10/01 05:28:35;;;;;;;17.50;10.18;;;;;;;;;;5114211;28;20031;-59
2023/10/01 05:31:14;;;;;;;25.83;10.40;;;;;;;;;;5114381;28;20405;-58
2023/10/01 05:33:45;;;;;;;17.50;9.35;;;;;;;;;;5113416;28;20105;-58
2023/10/01 05:36:13;;;;;;;17.10;9.32;;;;;;;;;;5113879;28;20059;-58
2023/10/01 05:38:39;;;;;;;15.20;8.60;;;;;;;;;;5094483;28;20039;-57
2023/10/01 05:41:09;;;;;;;13.70;7.60;;;;;;;;;;5113106;28;20035;-58
2023/10/01 05:43:38;;;;;;;12.07;8.13;;;;;;;;;;5112998;28;20027;-57
2023/10/01 05:46:08;;;;;;;11.82;7.55;;;;;;;;;;5094797;28;20085;-58
2023/10/01 05:48:37;;;;;;;12.82;7.72;;;;;;;;;;5113021;28;20038;-57
2023/10/01 05:51:04;;;;;;;10.13;7.65;;;;;;;;;;5113002;28;20399;-58
2023/10/01 05:53:30;;;;;;;10.88;7.43;;;;;;;;;;5112824;28;20036;-58
2023/10/01 05:56:06;;;;;;;12.85;8.32;;;;;;;;;;5112933;28;20038;-57
2023/10/01 05:58:32;;;;;;;10.75;7.22;;;;;;;;;;5112971;28;20056;-57
2023/10/01 06:00:57;;;;;;;11.43;8.35;;;;;;;;;;5094981;28;20032;-57
2023/10/01 06:03:24;;;;;;;12.82;8.18;;;;;;;;;;5112768;28;20059;-57
2023/10/01 06:05:58;;;;;;;12.75;8.15;;;;;;;;;;5094649;28;20088;-57
2023/10/01 06:08:32;;;;;;;14.48;8.90;;;;;;;;;;5094354;28;20032;-57
2023/10/01 06:10:59;;;;;;;14.82;9.43;;;;;;;;;;5113038;28;20420;-58
2023/10/01 06:13:25;;;;;;;17.08;9.25;;;;;;;;;;5112226;28;20028;-57
2023/10/01 06:15:52;;;;;;;15.02;8.80;;;;;;;;;;5112745;28;20035;-57
2023/10/01 06:18:18;;;;;;;15.52;9.00;;;;;;;;;;5112809;28;20046;-57
2023/10/01 06:20:43;;;;;;;14.70;8.35;;;;;;;;;;5112676;28;20035;-57
2023/10/01 06:23:08;;;;;;;17.15;8.73;;;;;;;;;;5112556;28;20106;-57
2023/10/01 06:25:47;;;;;;;16.65;9.52;;;;;;;;;;5112681;28;20036;-57
2023/10/01 06:28:20;;;;;;;14.65;9.23;;;;;;;;;;5112724;28;20114;-57
2023/10/01 06:30:45;;;;;;;21.15;9.30;;;;;;;;;;5112409;28;20541;-57
2023/10/01 06:33:26;;;;;;;13.60;8.95;;;;;;;;;;5112684;28;20074;-57
2023/10/01 06:36:15;;;;;;;15.55;8.73;;;;;;;;;;5112493;28;20043;-57
2023/10/01 06:38:38;;;;;;;14.00;9.00;;;;;;;;;;5112414;28;20063;-57
2023/10/01 06:41:06;;;;;;;15.55;9.63;;;;;;;;;;5112609;28;20448;-57
2023/10/01 06:43:32;;;;;;;11.95;7.95;;;;;;;;;;5112461;28;20118;-57
2023/10/01 06:45:59;;;;;;;14.15;8.70;;;;;;;;;;5112633;28;20036;-57
2023/10/01 06:48:26;;;;;;;14.30;9.02;;;;;;;;;;5094343;28;20466;-57
2023/10/01 06:50:53;;;;;;;14.70;8.68;;;;;;;;;;5115504;28;20043;-57
2023/10/01 06:53:19;;;;;;;15.60;8.98;;;;;;;;;;5116189;28;20482;-57
2023/10/01 06:55:47;;;;;;;15.20;9.10;;;;;;;;;;5116239;28;20066;-57
2023/10/01 06:58:13;;;;;;;12.20;8.48;;;;;;;;;;5116226;28;20047;-57
2023/10/01 07:00:41;;;;;;;12.52;8.38;;;;;;;;;;5115824;28;20436;-57
2023/10/01 07:03:21;;;;;;;14.05;7.72;;;;;;;;;;5097738;28;20044;-57
2023/10/01 07:05:47;;;;;;;13.25;8.20;;;;;;;;;;5116030;28;20059;-57
2023/10/01 07:08:14;;;;;;;18.75;8.25;;;;;;;;;;5116065;28;20071;-57
2023/10/01 07:10:40;;;;;;;13.52;7.22;;;;;;;;;;5115989;28;20043;-57
2023/10/01 07:13:05;;;;;;;12.60;7.07;;;;;;;;;;5097627;28;20039;-57
2023/10/01 07:15:36;;;;;;;14.93;6.95;;;;;;;;;;5115884;28;20061;-57
2023/10/01 07:18:13;;;;;;;14.32;8.88;;;;;;;;;;5115391;28;20054;-57
2023/10/01 07:20:38;;;;;;;12.88;7.97;;;;;;;;;;5115473;28;20040;-57
2023/10/01 07:23:04;;;;;;;11.85;7.03;;;;;;;;;;5115603;28;20042;-57
2023/10/01 07:25:39;;;;;;;10.85;6.97;;;;;;;;;;5115388;28;20492;-57
2023/10/01 07:28:06;;;;;;;12.68;7.22;;;;;;;;;;5090779;28;20028;-57
2023/10/01 07:30:45;;;;;;;17.95;8.52;;;;;;;;;;5105288;28;20451;-57
2023/10/01 07:33:14;;;;;;;16.00;8.18;;;;;;;;;;5095597;28;20081;-57
2023/10/01 07:35:40;;;;;;;14.73;8.95;;;;;;;;;;5094750;28;20051;-57
2023/10/01 07:38:06;;;;;;;10.32;7.32;;;;;;;;;;5095555;28;20044;-57
2023/10/01 07:40:50;;;;;;;14.63;8.55;;;;;;;;;;5094538;28;20047;-57
2023/10/01 07:43:16;;;;;;;14.00;8.43;;;;;;;;;;5094994;28;20044;-57
2023/10/01 07:45:55;;;;;;;13.52;8.25;;;;;;;;;;5095020;28;20032;-58
2023/10/01 07:48:21;;;;;;;13.27;7.88;;;;;;;;;;5094667;28;20040;-57
2023/10/01 07:50:47;;;;;;;17.42;8.95;;;;;;;;;;5094444;28;20089;-57
2023/10/01 07:53:13;;;;;;;15.38;8.52;;;;;;;;;;5094443;28;20074;-57
2023/10/01 07:55:39;;;;;;;15.35;8.55;;;;;;;;;;5094182;28;20043;-57
2023/10/01 07:58:23;;;;;;;13.07;7.97;;;;;;;;;;5094837;28;20039;-57
2023/10/01 08:00:58;;;;;;;15.23;8.45;;;;;;;;;;5076069;28;20111;-57
2023/10/01 08:05:50;;;;;;;13.57;8.40;;;;;;;;;;5094054;28;20028;-58
2023/10/01 08:08:35;;;;;;;16.02;8.60;;;;;;;;;;5093498;28;20070;-58
2023/10/01 08:11:02;;;;;;;16.45;8.63;;;;;;;;;;5093806;28;20064;-58
2023/10/01 08:13:30;;;;;;;14.98;8.80;;;;;;;;;;5094365;28;20040;-58
2023/10/01 08:16:01;;;;;;;14.45;8.02;;;;;;;;;;5093170;28;20036;-59
2023/10/01 08:18:34;;;;;;;13.25;8.02;;;;;;;;;;5087377;28;20555;-58
2023/10/01 08:21:02;;;;;;;12.20;6.80;;;;;;;;;;5090358;28;20069;-59
2023/10/01 08:23:33;;;;;;;12.02;6.38;;;;;;;;;;5091358;28;20056;-59
2023/10/01 08:26:03;;;;;;;9.45;6.72;;;;;;;;;;5090560;28;20032;-59
2023/10/01 08:28:29;;;;;;;9.55;6.07;;;;;;;;;;5090805;28;20485;-59
2023/10/01 08:31:01;;;;;;;9.70;5.90;;;;;;;;;;5090935;28;20040;-59
2023/10/01 08:33:32;;;;;;;7.88;5.45;;;;;;;;;;5090784;28;20044;-59
2023/10/01 08:36:12;;;;;;;9.23;5.05;;;;;;;;;;5090987;28;20044;-59
2023/10/01 08:38:47;;;;;;;9.07;6.00;;;;;;;;;;5090912;28;20482;-58
2023/10/01 08:41:23;;;;;;;7.65;4.90;;;;;;;;;;5090680;28;20036;-60
2023/10/01 08:44:09;;;;;;;8.32;5.65;;;;;;;;;;5090719;28;20040;-59
2023/10/01 08:46:39;;;;;;;12.52;5.55;;;;;;;;;;5090477;28;20034;-59
2023/10/01 08:49:22;;;;;;;9.60;6.40;;;;;;;;;;5091051;28;20047;-59
2023/10/01 08:51:48;;;;;;;13.88;6.35;;;;;;;;;;5090805;28;20085;-59
2023/10/01 08:54:17;;;;;;;12.40;6.93;;;;;;;;;;5090095;28;20070;-60
2023/10/01 08:56:44;;;;;;;13.52;6.70;;;;;;;;;;5089807;28;20103;-60
2023/10/01 08:59:23;;;;;;;10.98;6.38;;;;;;;;;;5090014;28;20482;-60
2023/10/01 09:01:52;;;;;;;9.88;6.80;;;;;;;;;;5090361;28;20140;-59
2023/10/01 09:04:44;;;;;;;16.85;7.15;;;;;;;;;;5090541;28;20474;-59
2023/10/01 09:07:11;;;;;;;12.00;6.82;;;;;;;;;;5090476;28;20048;-60
2023/10/01 09:09:54;;;;;;;13.35;7.50;;;;;;;;;;5090222;28;20040;-60
2023/10/01 09:12:20;;;;;;;13.23;7.10;;;;;;;;;;5089947;28;20359;-59
2023/10/01 09:14:48;;;;;;;11.23;6.88;;;;;;;;;;5089948;28;20694;-60
2023/10/01 09:17:27;;;;;;;13.13;7.03;;;;;;;;;;5090132;28;20123;-57
2023/10/01 09:19:52;;;;;;;13.95;7.97;;;;;;;;;;5071753;28;20496;-60
2023/10/01 09:25:13;;;;;;;13.82;7.75;;;;;;;;;;5090019;28;20139;-59
2023/10/01 09:27:56;;;;;;;12.52;7.18;;;;;;;;;;5091480;28;20370;-59
2023/10/01 09:30:31;;;;;;;30.95;8.57;;;;;;;;;;5093299;28;20043;-59
2023/10/01 09:33:04;;;;;;;13.00;7.72;;;;;;;;;;5074547;28;20028;-60
2023/10/01 09:35:49;;;;;;;13.20;7.32;;;;;;;;;;5074317;28;20561;-58
2023/10/01 09:38:18;;;;;;;15.73;8.43;;;;;;;;;;5082123;28;20036;-59
2023/10/01 09:40:45;;;;;;;14.85;8.05;;;;;;;;;;5113509;28;20491;-59
2023/10/01 09:43:30;;;;;;;14.13;8.23;;;;;;;;;;5094921;28;20427;-59
2023/10/01 09:46:00;;;;;;;15.85;7.60;;;;;;;;;;5087405;28;20035;-59
2023/10/01 09:48:33;;;;;;;10.38;7.03;;;;;;;;;;5103662;28;20040;-66
2023/10/01 09:51:13;;;;;;;17.13;8.13;;;;;;;;;;5102782;28;20181;-67
2023/10/01 09:53:44;;;;;;;15.43;8.43;;;;;;;;;;5092828;28;20036;-66
2023/10/01 09:56:13;;;;;;;12.55;7.75;;;;;;;;;;5094030;28;20032;-65
2023/10/01 09:58:46;;;;;;;18.30;8.48;;;;;;;;;;5094306;28;20044;-65
2023/10/01 10:01:17;;;;;;;19.80;8.80;;;;;;;;;;5091347;28;20129;-65
2023/10/01 10:03:43;;;;;;;20.45;9.43;;;;;;;;;;5091652;28;20049;-65
2023/10/01 10:06:09;;;;;;;17.20;8.25;;;;;;;;;;5093979;28;20461;-65
2023/10/01 10:08:35;;;;;;;16.30;8.20;;;;;;;;;;5093896;28;20032;-64
2023/10/01 10:11:02;;;;;;;16.63;8.00;;;;;;;;;;5094183;28;20385;-65
2023/10/01 10:13:36;;;;;;;16.70;8.63;;;;;;;;;;5093608;28;20047;-65
2023/10/01 10:19:21;;;;;;;16.17;7.90;;;;;;;;;;5011752;28;20050;-64
2023/10/01 10:24:30;;;;;;;16.52;7.70;;;;;;;;;;5061931;28;20526;-65
2023/10/01 10:26:56;;;;;;;14.77;7.25;;;;;;;;;;5095488;28;20024;-65
2023/10/01 10:29:22;;;;;;;17.67;7.35;;;;;;;;;;5095756;28;20092;-65
2023/10/01 10:32:09;;;;;;;15.43;7.20;;;;;;;;;;5096367;28;20566;-65
2023/10/01 10:34:36;;;;;;;14.57;7.45;;;;;;;;;;5096314;28;20042;-65
2023/10/01 10:37:06;;;;;;;12.70;5.93;;;;;;;;;;5097322;28;20036;-65
2023/10/01 10:40:12;;;;;;;16.70;6.75;;;;;;;;;;5097563;28;20051;-64
2023/10/01 10:42:38;;;;;;;17.15;6.97;;;;;;;;;;5097803;28;20074;-57
2023/10/01 10:45:22;;;;;;;13.35;6.97;;;;;;;;;;5079276;28;20071;-57
2023/10/01 10:48:03;;;;;;;14.30;6.00;;;;;;;;;;5097649;28;20527;-57
2023/10/01 10:50:53;;;;;;;17.92;7.35;;;;;;;;;;5097604;28;20036;-57
2023/10/01 10:53:21;;;;;;;15.73;7.00;;;;;;;;;;5097081;28;20048;-57
2023/10/01 10:55:56;;;;;;;12.60;6.03;;;;;;;;;;5078830;28;20459;-57
2023/10/01 10:58:25;;;;;;;16.48;6.95;;;;;;;;;;5079164;28;20047;-57
2023/10/01 11:00:50;;;;;;;12.23;5.82;;;;;;;;;;5097001;28;20474;-57
2023/10/01 11:03:38;;;;;;;12.88;6.35;;;;;;;;;;5096993;28;20119;-57
2023/10/01 11:06:17;;;;;;;16.98;5.93;;;;;;;;;;5097004;28;20079;-57
2023/10/01 11:08:50;;;;;;;16.48;7.22;;;;;;;;;;5097053;28;20123;-59
2023/10/01 11:11:27;;;;;;;10.32;5.57;;;;;;;;;;5078704;28;20115;-57
2023/10/01 11:14:02;;;;;;;12.30;5.45;;;;;;;;;;5096861;28;20044;-57
2023/10/01 11:16:36;;;;;;;12.55;5.07;;;;;;;;;;5078437;28;20036;-57
2023/10/01 11:19:14;;;;;;;14.70;5.85;;;;;;;;;;5095643;28;20128;-57
2023/10/01 11:21:57;;;;;;;12.82;5.22;;;;;;;;;;5096475;28;20433;-57
2023/10/01 11:24:25;;;;;;;9.45;3.88;;;;;;;;;;5096925;28;20040;-57
2023/10/01 11:27:14;;;;;;;5.85;3.38;;;;;;;;;;5096727;28;20026;-57
2023/10/01 11:29:59;;;;;;;6.47;2.78;;;;;;;;;;5096613;28;20043;-57
2023/10/01 11:32:58;;;;;;;5.60;3.53;;;;;;;;;;5096592;28;20035;-57
2023/10/01 11:35:32;;;;;;;5.43;2.95;;;;;;;;;;5077655;28;20047;-57
2023/10/01 11:38:07;;;;;;;6.13;3.13;;;;;;;;;;5096133;28;20043;-57
2023/10/01 11:43:23;;;;;;;4.78;2.63;;;;;;;;;;5095998;28;20093;-57
2023/10/01 11:46:24;;;;;;;6.32;2.50;;;;;;;;;;5096295;28;20044;-57
2023/10/01 11:49:02;;;;;;;7.03;3.15;;;;;;;;;;5076468;28;20031;-57
2023/10/01 11:52:05;;;;;;;5.35;3.00;;;;;;;;;;5096177;28;20040;-57
2023/10/01 11:54:52;;;;;;;4.25;2.50;;;;;;;;;;5096130;28;20393;-57
2023/10/01 11:57:31;;;;;;;8.55;3.25;;;;;;;;;;5095772;28;20085;-57
2023/10/01 11:59:58;;;;;;;4.93;2.60;;;;;;;;;;5096300;28;20549;-57
2023/10/01 12:02:25;;;;;;;6.03;2.85;;;;;;;;;;5095968;28;20115;-57
2023/10/01 12:04:56;;;;;;;3.83;2.25;;;;;;;;;;5095604;28;20044;-57
2023/10/01 12:07:22;;;;;;;7.13;2.70;;;;;;;;;;5095874;28;20044;-57
2023/10/01 12:09:49;;;;;;;7.47;2.70;;;;;;;;;;5095832;28;20039;-57
2023/10/01 12:12:15;;;;;;;6.50;3.22;;;;;;;;;;5095508;28;20036;-57
2023/10/01 12:14:54;;;;;;;5.80;3.13;;;;;;;;;;5095759;28;20024;-57
2023/10/01 12:17:27;;;;;;;4.68;2.38;;;;;;;;;;5077324;28;20504;-57
2023/10/01 12:19:53;;;;;;;5.35;2.70;;;;;;;;;;5095368;28;20040;-57
2023/10/01 12:22:23;;;;;;;5.85;2.42;;;;;;;;;;5095335;28;20043;-57
2023/10/01 12:24:56;;;;;;;8.20;2.65;;;;;;;;;;5095496;28;20036;-57
2023/10/01 12:30:11;;;;;;;6.93;2.38;;;;;;;;;;5095440;28;20038;-57
2023/10/01 12:32:42;;;;;;;3.50;2.03;;;;;;;;;;5094518;28;20146;-57
2023/10/01 12:35:29;;;;;;;5.78;2.80;;;;;;;;;;5095035;28;20131;-58
2023/10/01 12:38:23;;;;;;;4.45;2.05;;;;;;;;;;5076829;28;20044;-57
2023/10/01 12:40:54;;;;;;;4.32;2.03;;;;;;;;;;5095495;28;20043;-57
2023/10/01 12:43:36;;;;;;;4.85;2.30;;;;;;;;;;5094826;28;20097;-57
2023/10/01 12:46:04;;;;;;;5.03;2.08;;;;;;;;;;5094858;28;20119;-57
2023/10/01 12:48:30;;;;;;;6.95;1.95;;;;;;;;;;5076451;28;20028;-57
2023/10/01 12:51:03;;;;;;;4.25;2.35;;;;;;;;;;5094701;28;20115;-57
2023/10/01 12:53:47;;;;;;;4.65;1.85;;;;;;;;;;5094805;28;20035;-57
2023/10/01 12:56:13;;;;;;;4.47;2.25;;;;;;;;;;5095217;28;20040;-57
2023/10/01 12:58:39;;;;;;;2.65;1.83;;;;;;;;;;5095160;28;20039;-57
2023/10/01 13:01:31;;;;;;;6.88;2.40;;;;;;;;;;5076499;28;20040;-57
2023/10/01 13:04:10;;;;;;;5.95;2.28;;;;;;;;;;5093825;28;20110;-57
2023/10/01 13:06:42;;;;;;;6.50;2.22;;;;;;;;;;5094427;28;20055;-57
2023/10/01 13:09:34;;;;;;;4.20;1.80;;;;;;;;;;5094377;28;20039;-57
2023/10/01 13:11:59;;;;;;;2.67;1.50;;;;;;;;;;5094274;28;20387;-57
2023/10/01 13:14:28;;;;;;;3.33;2.00;;;;;;;;;;5094281;28;20036;-57
2023/10/01 13:17:00;;;;;;;4.55;1.70;;;;;;;;;;5094550;28;20040;-57
2023/10/01 13:19:33;;;;;;;5.15;1.73;;;;;;;;;;5094838;28;20079;-58
2023/10/01 13:21:59;;;;;;;2.55;1.80;;;;;;;;;;5094521;28;20036;-57
2023/10/01 13:24:26;;;;;;;4.53;1.75;;;;;;;;;;5094125;28;20032;-57
2023/10/01 13:27:05;;;;;;;4.40;1.95;;;;;;;;;;5094697;28;20032;-57
2023/10/01 13:29:30;;;;;;;3.08;1.38;;;;;;;;;;5094139;28;20039;-57
2023/10/01 13:32:15;;;;;;;4.50;2.08;;;;;;;;;;5094019;28;20397;-57
2023/10/01 13:34:54;;;;;;;3.92;1.77;;;;;;;;;;5094306;28;20417;-57
2023/10/01 13:40:12;;;;;;;4.38;1.50;;;;;;;;;;5075848;28;20039;-57
2023/10/01 14:10:26;;;;;;;4.32;1.70;;;;;;;;;;5113053;28;20044;-57
2023/10/01 14:13:00;;;;;;;3.33;1.52;;;;;;;;;;5113531;28;20020;-57
2023/10/01 14:15:26;;;;;;;4.03;1.92;;;;;;;;;;5113591;28;20032;-57
2023/10/01 14:17:55;;;;;;;2.13;1.58;;;;;;;;;;5106803;28;20088;-57
2023/10/01 14:20:37;;;;;;;3.00;1.40;;;;;;;;;;5110023;28;20031;-57
2023/10/01 14:23:07;;;;;;;4.35;1.60;;;;;;;;;;5091680;28;20039;-58
2023/10/01 14:25:58;;;;;;;5.33;1.60;;;;;;;;;;5110399;28;20484;-58
2023/10/01 14:28:25;;;;;;;4.43;1.58;;;;;;;;;;5110494;28;20277;-59
2023/10/01 14:30:51;;;;;;;4.60;1.48;;;;;;;;;;5109878;28;20588;-59
2023/10/01 14:33:25;;;;;;;3.17;1.40;;;;;;;;;;5110184;28;20058;-59
2023/10/01 14:35:51;;;;;;;6.25;1.83;;;;;;;;;;5110561;28;20061;-59
2023/10/01 14:38:16;;;;;;;4.85;2.10;;;;;;;;;;5109619;28;20043;-59
2023/10/01 14:40:44;;;;;;;4.18;1.63;;;;;;;;;;5109455;28;20539;-59
2023/10/01 14:43:09;;;;;;;3.00;1.63;;;;;;;;;;5091472;28;20039;-59
2023/10/01 14:45:42;;;;;;;4.32;1.60;;;;;;;;;;5109744;28;20081;-59
2023/10/01 14:48:08;;;;;;;5.70;1.85;;;;;;;;;;5109689;28;20039;-59
2023/10/01 14:50:42;;;;;;;6.25;2.30;;;;;;;;;;5109799;28;20028;-59
2023/10/01 14:53:12;;;;;;;4.00;1.80;;;;;;;;;;5091551;28;20054;-59
2023/10/01 14:55:41;;;;;;;4.68;1.83;;;;;;;;;;5109626;28;20110;-59
2023/10/01 14:58:12;;;;;;;3.88;2.00;;;;;;;;;;5109844;28;20043;-59
2023/10/01 15:00:59;;;;;;;2.42;1.80;;;;;;;;;;5091933;28;20038;-59
2023/10/01 15:03:35;;;;;;;4.97;1.60;;;;;;;;;;5109707;28;20051;-59
2023/10/01 15:06:05;;;;;;;6.03;1.88;;;;;;;;;;5109903;28;20027;-59
2023/10/01 15:08:36;;;;;;;5.78;1.85;;;;;;;;;;5109884;28;20020;-59
2023/10/01 15:11:12;;;;;;;4.35;1.75;;;;;;;;;;5110133;28;20071;-59
2023/10/01 15:13:41;;;;;;;3.80;1.95;;;;;;;;;;5113172;28;20501;-59
2023/10/01 15:16:12;;;;;;;4.95;2.10;;;;;;;;;;5112816;28;20043;-59
2023/10/01 15:18:40;;;;;;;4.45;1.60;;;;;;;;;;5113556;28;20761;-59
2023/10/01 15:21:23;;;;;;;4.40;2.20;;;;;;;;;;5113293;28;20775;-59
2023/10/01 15:24:07;;;;;;;3.50;1.80;;;;;;;;;;5113342;28;20044;-59
2023/10/01 15:26:32;;;;;;;2.80;1.63;;;;;;;;;;5112926;28;20522;-59
2023/10/01 15:28:59;;;;;;;5.63;2.53;;;;;;;;;;5095111;28;20046;-59
2023/10/01 15:31:31;;;;;;;6.80;3.00;;;;;;;;;;5094918;28;20032;-59
2023/10/01 15:34:02;;;;;;;5.70;3.28;;;;;;;;;;5113141;28;20044;-59
2023/10/01 15:36:40;;;;;;;6.10;3.38;;;;;;;;;;5112533;28;20048;-59
2023/10/01 15:39:14;;;;;;;4.85;2.58;;;;;;;;;;5095066;28;20331;-59
2023/10/01 15:41:43;;;;;;;5.65;2.95;;;;;;;;;;5094689;28;20044;-59
2023/10/01 15:44:09;;;;;;;4.22;2.50;;;;;;;;;;5112924;28;20081;-59
2023/10/01 15:46:40;;;;;;;5.97;2.45;;;;;;;;;;5112766;28;20048;-59
2023/10/01 15:49:22;;;;;;;5.82;2.35;;;;;;;;;;5113164;28;20089;-59
2023/10/01 15:51:47;;;;;;;4.13;2.25;;;;;;;;;;5118893;27;20035;-59
2023/10/01 15:54:22;;;;;;;4.47;2.75;;;;;;;;;;5132272;27;20038;-59
2023/10/01 15:56:56;;;;;;;5.93;2.67;;;;;;;;;;5131340;27;20047;-59
2023/10/01 15:59:22;;;;;;;5.15;2.78;;;;;;;;;;5131492;27;20115;-60
2023/10/01 16:01:51;;;;;;;6.45;3.58;;;;;;;;;;5132044;27;20108;-60
2023/10/01 16:04:23;;;;;;;6.80;3.20;;;;;;;;;;5113786;27;20113;-60